sensor_id;sensor_type;location;lat;lon;timestamp;P1;durP1;ratioP1;P2;durP2;ratioP2
6661;SDS011;3367;48.714;8.994;2023-02-28T00:01:22;2.00;;;1.70;;
6661;SDS011;3367;48.714;8.994;2023-02-28T00:03:49;3.57;;;2.20;;
6661;SDS011;3367;48.714;8.994;2023-02-28T00:06:16;2.37;;;2.27;;
6661;SDS011;3367;48.714;8.994;2023-02-28T00:08:43;3.00;;;1.93;;
6661;SDS011;3367;48.714;8.994;2023-02-28T00:11:12;2.37;;;2.10;;
6661;SDS011;3367;48.714;8.994;2023-02-28T00:13:40;3.13;;;2.10;;
6661;SDS011;3367;48.714;8.994;2023-02-28T00:16:11;3.70;;;2.20;;
6661;SDS011;3367;48.714;8.994;2023-02-28T00:18:39;2.50;;;1.90;;
6661;SDS011;3367;48.714;8.994;2023-02-28T00:21:07;2.90;;;1.80;;
6661;SDS011;3367;48.714;8.994;2023-02-28T00:23:34;2.43;;;1.90;;
6661;SDS011;3367;48.714;8.994;2023-02-28T00:26:01;2.80;;;1.90;;
6661;SDS011;3367;48.714;8.994;2023-02-28T00:28:30;2.30;;;2.13;;
6661;SDS011;3367;48.714;8.994;2023-02-28T00:30:56;2.07;;;1.97;;
6661;SDS011;3367;48.714;8.994;2023-02-28T00:33:24;3.10;;;2.10;;
6661;SDS011;3367;48.714;8.994;2023-02-28T00:35:52;1.70;;;1.60;;
6661;SDS011;3367;48.714;8.994;2023-02-28T00:38:26;2.27;;;2.00;;
6661;SDS011;3367;48.714;8.994;2023-02-28T00:40:53;2.90;;;1.67;;
6661;SDS011;3367;48.714;8.994;2023-02-28T00:43:20;1.97;;;1.83;;
6661;SDS011;3367;48.714;8.994;2023-02-28T00:45:48;3.47;;;1.93;;
6661;SDS011;3367;48.714;8.994;2023-02-28T00:48:15;7.63;;;1.97;;
6661;SDS011;3367;48.714;8.994;2023-02-28T00:50:41;2.00;;;1.73;;
6661;SDS011;3367;48.714;8.994;2023-02-28T00:53:08;3.30;;;2.40;;
6661;SDS011;3367;48.714;8.994;2023-02-28T00:55:35;3.13;;;2.03;;
6661;SDS011;3367;48.714;8.994;2023-02-28T00:58:01;2.30;;;2.10;;
6661;SDS011;3367;48.714;8.994;2023-02-28T01:00:28;2.07;;;1.97;;
6661;SDS011;3367;48.714;8.994;2023-02-28T01:02:56;4.30;;;2.17;;
6661;SDS011;3367;48.714;8.994;2023-02-28T01:05:23;1.67;;;1.57;;
6661;SDS011;3367;48.714;8.994;2023-02-28T01:07:50;3.10;;;2.10;;
6661;SDS011;3367;48.714;8.994;2023-02-28T01:10:16;1.73;;;1.63;;
6661;SDS011;3367;48.714;8.994;2023-02-28T01:12:43;3.20;;;2.13;;
6661;SDS011;3367;48.714;8.994;2023-02-28T01:15:10;2.63;;;2.10;;
6661;SDS011;3367;48.714;8.994;2023-02-28T01:17:37;7.73;;;2.30;;
6661;SDS011;3367;48.714;8.994;2023-02-28T01:20:06;3.30;;;1.70;;
6661;SDS011;3367;48.714;8.994;2023-02-28T01:22:34;2.37;;;2.27;;
6661;SDS011;3367;48.714;8.994;2023-02-28T01:25:01;2.37;;;2.10;;
6661;SDS011;3367;48.714;8.994;2023-02-28T01:27:28;2.43;;;2.23;;
6661;SDS011;3367;48.714;8.994;2023-02-28T01:29:55;3.40;;;2.30;;
6661;SDS011;3367;48.714;8.994;2023-02-28T01:32:21;3.80;;;2.57;;
6661;SDS011;3367;48.714;8.994;2023-02-28T01:34:48;2.43;;;2.23;;
6661;SDS011;3367;48.714;8.994;2023-02-28T01:37:17;2.67;;;2.10;;
6661;SDS011;3367;48.714;8.994;2023-02-28T01:39:44;3.73;;;2.33;;
6661;SDS011;3367;48.714;8.994;2023-02-28T01:42:11;4.93;;;2.93;;
6661;SDS011;3367;48.714;8.994;2023-02-28T01:44:55;3.27;;;2.97;;
6661;SDS011;3367;48.714;8.994;2023-02-28T01:47:26;2.60;;;2.40;;
6661;SDS011;3367;48.714;8.994;2023-02-28T01:49:57;3.73;;;2.37;;
6661;SDS011;3367;48.714;8.994;2023-02-28T01:52:28;2.87;;;2.43;;
6661;SDS011;3367;48.714;8.994;2023-02-28T01:54:56;3.57;;;2.40;;
6661;SDS011;3367;48.714;8.994;2023-02-28T01:57:27;4.70;;;2.50;;
6661;SDS011;3367;48.714;8.994;2023-02-28T02:00:04;2.87;;;2.60;;
6661;SDS011;3367;48.714;8.994;2023-02-28T02:02:34;4.20;;;2.70;;
6661;SDS011;3367;48.714;8.994;2023-02-28T02:05:04;2.83;;;2.40;;
6661;SDS011;3367;48.714;8.994;2023-02-28T02:07:35;6.10;;;2.63;;
6661;SDS011;3367;48.714;8.994;2023-02-28T02:10:05;3.80;;;3.13;;
6661;SDS011;3367;48.714;8.994;2023-02-28T02:12:43;4.30;;;3.20;;
6661;SDS011;3367;48.714;8.994;2023-02-28T02:15:22;3.73;;;3.37;;
6661;SDS011;3367;48.714;8.994;2023-02-28T02:17:56;2.90;;;2.60;;
6661;SDS011;3367;48.714;8.994;2023-02-28T02:26:28;7.20;;;3.20;;
6661;SDS011;3367;48.714;8.994;2023-02-28T02:29:22;3.60;;;3.30;;
6661;SDS011;3367;48.714;8.994;2023-02-28T02:35:16;3.80;;;3.17;;
6661;SDS011;3367;48.714;8.994;2023-02-28T02:37:50;4.60;;;2.93;;
6661;SDS011;3367;48.714;8.994;2023-02-28T02:40:21;4.60;;;3.10;;
6661;SDS011;3367;48.714;8.994;2023-02-28T02:42:52;3.50;;;3.20;;
6661;SDS011;3367;48.714;8.994;2023-02-28T02:45:24;3.43;;;3.00;;
6661;SDS011;3367;48.714;8.994;2023-02-28T02:47:53;3.27;;;2.97;;
6661;SDS011;3367;48.714;8.994;2023-02-28T02:50:29;4.53;;;3.13;;
6661;SDS011;3367;48.714;8.994;2023-02-28T02:53:00;3.53;;;3.17;;
6661;SDS011;3367;48.714;8.994;2023-02-28T02:55:29;23.63;;;4.00;;
6661;SDS011;3367;48.714;8.994;2023-02-28T02:58:01;3.37;;;3.00;;
6661;SDS011;3367;48.714;8.994;2023-02-28T03:00:31;5.90;;;3.70;;
6661;SDS011;3367;48.714;8.994;2023-02-28T03:03:02;5.73;;;3.60;;
6661;SDS011;3367;48.714;8.994;2023-02-28T03:05:32;3.20;;;2.90;;
6661;SDS011;3367;48.714;8.994;2023-02-28T03:08:06;4.93;;;4.30;;
6661;SDS011;3367;48.714;8.994;2023-02-28T03:10:34;4.70;;;3.50;;
6661;SDS011;3367;48.714;8.994;2023-02-28T03:13:16;8.43;;;3.40;;
6661;SDS011;3367;48.714;8.994;2023-02-28T03:19:18;5.20;;;3.63;;
6661;SDS011;3367;48.714;8.994;2023-02-28T03:22:00;4.87;;;3.77;;
6661;SDS011;3367;48.714;8.994;2023-02-28T03:24:41;4.00;;;3.57;;
6661;SDS011;3367;48.714;8.994;2023-02-28T03:27:16;4.87;;;3.80;;
6661;SDS011;3367;48.714;8.994;2023-02-28T03:29:51;3.60;;;3.30;;
6661;SDS011;3367;48.714;8.994;2023-02-28T03:32:24;4.27;;;3.00;;
6661;SDS011;3367;48.714;8.994;2023-02-28T03:34:56;4.50;;;3.40;;
6661;SDS011;3367;48.714;8.994;2023-02-28T03:37:32;3.57;;;3.27;;
6661;SDS011;3367;48.714;8.994;2023-02-28T03:40:02;6.50;;;4.47;;
6661;SDS011;3367;48.714;8.994;2023-02-28T03:42:35;5.63;;;3.60;;
6661;SDS011;3367;48.714;8.994;2023-02-28T03:45:05;5.37;;;4.10;;
6661;SDS011;3367;48.714;8.994;2023-02-28T03:47:39;4.37;;;3.70;;
6661;SDS011;3367;48.714;8.994;2023-02-28T03:50:12;5.43;;;3.80;;
6661;SDS011;3367;48.714;8.994;2023-02-28T03:52:44;4.83;;;4.00;;
6661;SDS011;3367;48.714;8.994;2023-02-28T03:55:16;5.60;;;3.33;;
6661;SDS011;3367;48.714;8.994;2023-02-28T03:57:47;5.30;;;3.87;;
6661;SDS011;3367;48.714;8.994;2023-02-28T04:00:25;7.53;;;4.17;;
6661;SDS011;3367;48.714;8.994;2023-02-28T04:02:56;6.67;;;3.73;;
6661;SDS011;3367;48.714;8.994;2023-02-28T04:05:24;4.27;;;3.87;;
6661;SDS011;3367;48.714;8.994;2023-02-28T04:07:54;6.67;;;4.40;;
6661;SDS011;3367;48.714;8.994;2023-02-28T04:10:29;5.97;;;4.03;;
6661;SDS011;3367;48.714;8.994;2023-02-28T04:12:56;5.40;;;4.00;;
6661;SDS011;3367;48.714;8.994;2023-02-28T04:15:23;5.70;;;4.70;;
6661;SDS011;3367;48.714;8.994;2023-02-28T04:17:52;5.13;;;4.27;;
6661;SDS011;3367;48.714;8.994;2023-02-28T04:20:19;6.43;;;4.97;;
6661;SDS011;3367;48.714;8.994;2023-02-28T04:22:46;7.57;;;4.23;;
6661;SDS011;3367;48.714;8.994;2023-02-28T04:25:15;5.37;;;4.10;;
6661;SDS011;3367;48.714;8.994;2023-02-28T04:27:42;6.10;;;4.57;;
6661;SDS011;3367;48.714;8.994;2023-02-28T04:30:10;5.20;;;4.70;;
6661;SDS011;3367;48.714;8.994;2023-02-28T04:32:38;7.73;;;5.67;;
6661;SDS011;3367;48.714;8.994;2023-02-28T04:35:05;5.30;;;4.50;;
6661;SDS011;3367;48.714;8.994;2023-02-28T04:37:33;5.50;;;3.90;;
6661;SDS011;3367;48.714;8.994;2023-02-28T04:40:02;6.07;;;4.70;;
6661;SDS011;3367;48.714;8.994;2023-02-28T04:42:31;5.63;;;4.00;;
6661;SDS011;3367;48.714;8.994;2023-02-28T04:45:00;5.60;;;4.77;;
6661;SDS011;3367;48.714;8.994;2023-02-28T04:47:28;5.07;;;4.57;;
6661;SDS011;3367;48.714;8.994;2023-02-28T04:49:55;6.87;;;5.30;;
6661;SDS011;3367;48.714;8.994;2023-02-28T04:52:22;4.53;;;4.10;;
6661;SDS011;3367;48.714;8.994;2023-02-28T04:54:49;6.57;;;4.40;;
6661;SDS011;3367;48.714;8.994;2023-02-28T04:57:16;5.63;;;4.10;;
6661;SDS011;3367;48.714;8.994;2023-02-28T04:59:45;6.23;;;4.83;;
6661;SDS011;3367;48.714;8.994;2023-02-28T05:02:12;6.57;;;4.83;;
6661;SDS011;3367;48.714;8.994;2023-02-28T05:04:39;7.20;;;4.67;;
6661;SDS011;3367;48.714;8.994;2023-02-28T05:07:06;5.83;;;4.20;;
6661;SDS011;3367;48.714;8.994;2023-02-28T05:09:33;8.60;;;4.90;;
6661;SDS011;3367;48.714;8.994;2023-02-28T05:12:00;6.90;;;4.73;;
6661;SDS011;3367;48.714;8.994;2023-02-28T05:14:37;6.93;;;4.60;;
6661;SDS011;3367;48.714;8.994;2023-02-28T05:17:06;4.73;;;4.20;;
6661;SDS011;3367;48.714;8.994;2023-02-28T05:19:34;5.80;;;4.50;;
6661;SDS011;3367;48.714;8.994;2023-02-28T05:22:01;6.97;;;4.53;;
6661;SDS011;3367;48.714;8.994;2023-02-28T05:24:29;4.90;;;4.20;;
6661;SDS011;3367;48.714;8.994;2023-02-28T05:26:56;8.17;;;5.60;;
6661;SDS011;3367;48.714;8.994;2023-02-28T05:29:23;5.43;;;4.30;;
6661;SDS011;3367;48.714;8.994;2023-02-28T05:31:50;8.03;;;4.53;;
6661;SDS011;3367;48.714;8.994;2023-02-28T05:34:18;7.40;;;4.87;;
6661;SDS011;3367;48.714;8.994;2023-02-28T05:36:45;6.03;;;4.30;;
6661;SDS011;3367;48.714;8.994;2023-02-28T05:39:12;7.13;;;5.17;;
6661;SDS011;3367;48.714;8.994;2023-02-28T05:41:40;8.47;;;5.40;;
6661;SDS011;3367;48.714;8.994;2023-02-28T05:44:07;7.70;;;4.60;;
6661;SDS011;3367;48.714;8.994;2023-02-28T05:46:34;8.73;;;5.43;;
6661;SDS011;3367;48.714;8.994;2023-02-28T05:49:02;7.40;;;4.80;;
6661;SDS011;3367;48.714;8.994;2023-02-28T05:51:30;8.40;;;6.40;;
6661;SDS011;3367;48.714;8.994;2023-02-28T05:53:59;6.93;;;5.10;;
6661;SDS011;3367;48.714;8.994;2023-02-28T05:56:27;7.00;;;5.57;;
6661;SDS011;3367;48.714;8.994;2023-02-28T05:58:54;7.77;;;5.50;;
6661;SDS011;3367;48.714;8.994;2023-02-28T06:01:30;10.30;;;5.70;;
6661;SDS011;3367;48.714;8.994;2023-02-28T06:03:59;7.00;;;4.90;;
6661;SDS011;3367;48.714;8.994;2023-02-28T06:06:27;7.60;;;5.80;;
6661;SDS011;3367;48.714;8.994;2023-02-28T06:08:56;9.43;;;6.30;;
6661;SDS011;3367;48.714;8.994;2023-02-28T06:11:23;8.13;;;5.13;;
6661;SDS011;3367;48.714;8.994;2023-02-28T06:13:52;9.23;;;5.90;;
6661;SDS011;3367;48.714;8.994;2023-02-28T06:16:20;8.77;;;5.20;;
6661;SDS011;3367;48.714;8.994;2023-02-28T06:18:48;9.37;;;5.40;;
6661;SDS011;3367;48.714;8.994;2023-02-28T06:21:15;10.30;;;5.30;;
6661;SDS011;3367;48.714;8.994;2023-02-28T06:23:42;7.77;;;5.60;;
6661;SDS011;3367;48.714;8.994;2023-02-28T06:26:10;6.80;;;5.40;;
6661;SDS011;3367;48.714;8.994;2023-02-28T06:28:37;9.53;;;5.80;;
6661;SDS011;3367;48.714;8.994;2023-02-28T06:31:05;8.63;;;6.13;;
6661;SDS011;3367;48.714;8.994;2023-02-28T06:33:33;8.10;;;6.33;;
6661;SDS011;3367;48.714;8.994;2023-02-28T06:36:00;8.40;;;6.20;;
6661;SDS011;3367;48.714;8.994;2023-02-28T06:38:28;10.07;;;6.70;;
6661;SDS011;3367;48.714;8.994;2023-02-28T06:40:55;10.43;;;6.60;;
6661;SDS011;3367;48.714;8.994;2023-02-28T06:43:25;9.83;;;6.00;;
6661;SDS011;3367;48.714;8.994;2023-02-28T06:45:54;7.90;;;6.00;;
6661;SDS011;3367;48.714;8.994;2023-02-28T06:48:21;9.80;;;5.97;;
6661;SDS011;3367;48.714;8.994;2023-02-28T06:50:48;8.93;;;6.30;;
6661;SDS011;3367;48.714;8.994;2023-02-28T06:53:15;13.33;;;7.50;;
6661;SDS011;3367;48.714;8.994;2023-02-28T06:55:42;8.33;;;5.73;;
6661;SDS011;3367;48.714;8.994;2023-02-28T06:58:09;8.73;;;5.70;;
6661;SDS011;3367;48.714;8.994;2023-02-28T07:00:42;8.37;;;6.00;;
6661;SDS011;3367;48.714;8.994;2023-02-28T07:03:09;9.20;;;6.30;;
6661;SDS011;3367;48.714;8.994;2023-02-28T07:05:37;13.20;;;6.73;;
6661;SDS011;3367;48.714;8.994;2023-02-28T07:08:05;7.80;;;6.10;;
6661;SDS011;3367;48.714;8.994;2023-02-28T07:10:32;8.70;;;6.30;;
6661;SDS011;3367;48.714;8.994;2023-02-28T07:12:59;7.27;;;5.63;;
6661;SDS011;3367;48.714;8.994;2023-02-28T07:15:30;8.90;;;5.47;;
6661;SDS011;3367;48.714;8.994;2023-02-28T07:17:58;9.77;;;7.03;;
6661;SDS011;3367;48.714;8.994;2023-02-28T07:20:26;11.13;;;5.90;;
6661;SDS011;3367;48.714;8.994;2023-02-28T07:22:53;6.83;;;5.67;;
6661;SDS011;3367;48.714;8.994;2023-02-28T07:25:21;8.13;;;6.03;;
6661;SDS011;3367;48.714;8.994;2023-02-28T07:27:48;8.67;;;6.43;;
6661;SDS011;3367;48.714;8.994;2023-02-28T07:30:16;12.40;;;6.20;;
6661;SDS011;3367;48.714;8.994;2023-02-28T07:32:43;8.57;;;5.93;;
6661;SDS011;3367;48.714;8.994;2023-02-28T07:35:11;11.73;;;5.97;;
6661;SDS011;3367;48.714;8.994;2023-02-28T07:37:40;9.10;;;5.90;;
6661;SDS011;3367;48.714;8.994;2023-02-28T07:40:08;9.57;;;5.80;;
6661;SDS011;3367;48.714;8.994;2023-02-28T07:42:37;10.40;;;5.50;;
6661;SDS011;3367;48.714;8.994;2023-02-28T07:45:04;8.17;;;5.93;;
6661;SDS011;3367;48.714;8.994;2023-02-28T07:47:32;7.60;;;5.50;;
6661;SDS011;3367;48.714;8.994;2023-02-28T07:49:59;7.50;;;6.70;;
6661;SDS011;3367;48.714;8.994;2023-02-28T07:52:27;12.77;;;7.43;;
6661;SDS011;3367;48.714;8.994;2023-02-28T07:54:54;7.27;;;5.77;;
6661;SDS011;3367;48.714;8.994;2023-02-28T07:57:20;10.00;;;6.40;;
6661;SDS011;3367;48.714;8.994;2023-02-28T07:59:49;13.90;;;6.77;;
6661;SDS011;3367;48.714;8.994;2023-02-28T08:02:16;9.60;;;6.33;;
6661;SDS011;3367;48.714;8.994;2023-02-28T08:04:44;8.60;;;6.00;;
6661;SDS011;3367;48.714;8.994;2023-02-28T08:07:12;9.20;;;6.20;;
6661;SDS011;3367;48.714;8.994;2023-02-28T08:09:41;9.40;;;6.37;;
6661;SDS011;3367;48.714;8.994;2023-02-28T08:12:09;10.33;;;6.10;;
6661;SDS011;3367;48.714;8.994;2023-02-28T08:14:36;11.07;;;7.37;;
6661;SDS011;3367;48.714;8.994;2023-02-28T08:17:04;10.27;;;6.90;;
6661;SDS011;3367;48.714;8.994;2023-02-28T08:19:31;11.27;;;7.53;;
6661;SDS011;3367;48.714;8.994;2023-02-28T08:21:58;10.20;;;6.93;;
6661;SDS011;3367;48.714;8.994;2023-02-28T08:24:25;9.50;;;6.80;;
6661;SDS011;3367;48.714;8.994;2023-02-28T08:26:53;9.50;;;6.50;;
6661;SDS011;3367;48.714;8.994;2023-02-28T08:29:19;7.50;;;6.30;;
6661;SDS011;3367;48.714;8.994;2023-02-28T08:31:46;11.47;;;7.53;;
6661;SDS011;3367;48.714;8.994;2023-02-28T08:34:14;9.73;;;7.03;;
6661;SDS011;3367;48.714;8.994;2023-02-28T08:36:42;8.63;;;6.93;;
6661;SDS011;3367;48.714;8.994;2023-02-28T08:39:09;11.07;;;7.50;;
6661;SDS011;3367;48.714;8.994;2023-02-28T08:41:36;10.70;;;7.10;;
6661;SDS011;3367;48.714;8.994;2023-02-28T08:44:05;9.63;;;6.37;;
6661;SDS011;3367;48.714;8.994;2023-02-28T08:46:31;8.70;;;6.40;;
6661;SDS011;3367;48.714;8.994;2023-02-28T08:48:58;10.17;;;6.97;;
6661;SDS011;3367;48.714;8.994;2023-02-28T08:51:27;14.07;;;6.90;;
6661;SDS011;3367;48.714;8.994;2023-02-28T08:53:54;8.50;;;6.30;;
6661;SDS011;3367;48.714;8.994;2023-02-28T08:56:23;11.87;;;7.60;;
6661;SDS011;3367;48.714;8.994;2023-02-28T08:58:50;10.10;;;6.73;;
6661;SDS011;3367;48.714;8.994;2023-02-28T09:01:22;10.43;;;7.93;;
6661;SDS011;3367;48.714;8.994;2023-02-28T09:03:50;11.80;;;7.60;;
6661;SDS011;3367;48.714;8.994;2023-02-28T09:06:18;12.67;;;8.00;;
6661;SDS011;3367;48.714;8.994;2023-02-28T09:08:46;13.17;;;7.03;;
6661;SDS011;3367;48.714;8.994;2023-02-28T09:11:13;11.83;;;7.47;;
6661;SDS011;3367;48.714;8.994;2023-02-28T09:13:40;14.87;;;7.40;;
6661;SDS011;3367;48.714;8.994;2023-02-28T09:16:07;8.40;;;6.53;;
6661;SDS011;3367;48.714;8.994;2023-02-28T09:18:38;11.67;;;6.87;;
6661;SDS011;3367;48.714;8.994;2023-02-28T09:21:05;8.47;;;6.77;;
6661;SDS011;3367;48.714;8.994;2023-02-28T09:23:33;13.27;;;7.00;;
6661;SDS011;3367;48.714;8.994;2023-02-28T09:26:03;13.77;;;7.80;;
6661;SDS011;3367;48.714;8.994;2023-02-28T09:28:30;11.67;;;7.50;;
6661;SDS011;3367;48.714;8.994;2023-02-28T09:30:57;8.83;;;6.77;;
6661;SDS011;3367;48.714;8.994;2023-02-28T09:33:24;11.87;;;7.20;;
6661;SDS011;3367;48.714;8.994;2023-02-28T09:35:58;9.03;;;7.43;;
6661;SDS011;3367;48.714;8.994;2023-02-28T09:38:27;8.90;;;6.87;;
6661;SDS011;3367;48.714;8.994;2023-02-28T09:40:55;9.37;;;6.63;;
6661;SDS011;3367;48.714;8.994;2023-02-28T09:43:25;11.70;;;7.00;;
6661;SDS011;3367;48.714;8.994;2023-02-28T09:45:55;7.60;;;6.30;;
6661;SDS011;3367;48.714;8.994;2023-02-28T09:48:27;12.43;;;7.87;;
6661;SDS011;3367;48.714;8.994;2023-02-28T09:51:02;13.07;;;7.87;;
6661;SDS011;3367;48.714;8.994;2023-02-28T09:53:32;11.87;;;7.30;;
6661;SDS011;3367;48.714;8.994;2023-02-28T09:56:01;10.70;;;6.87;;
6661;SDS011;3367;48.714;8.994;2023-02-28T09:58:34;11.70;;;7.27;;
6661;SDS011;3367;48.714;8.994;2023-02-28T10:01:09;12.00;;;7.07;;
6661;SDS011;3367;48.714;8.994;2023-02-28T10:03:45;12.23;;;6.93;;
6661;SDS011;3367;48.714;8.994;2023-02-28T10:06:20;10.30;;;7.37;;
6661;SDS011;3367;48.714;8.994;2023-02-28T10:08:53;9.77;;;7.07;;
6661;SDS011;3367;48.714;8.994;2023-02-28T10:11:24;10.90;;;6.67;;
6661;SDS011;3367;48.714;8.994;2023-02-28T10:13:53;10.80;;;7.07;;
6661;SDS011;3367;48.714;8.994;2023-02-28T10:16:31;11.27;;;8.27;;
6661;SDS011;3367;48.714;8.994;2023-02-28T10:19:02;11.17;;;7.57;;
6661;SDS011;3367;48.714;8.994;2023-02-28T10:21:36;11.60;;;7.77;;
6661;SDS011;3367;48.714;8.994;2023-02-28T10:26:56;13.80;;;8.07;;
6661;SDS011;3367;48.714;8.994;2023-02-28T10:29:27;11.43;;;6.93;;
6661;SDS011;3367;48.714;8.994;2023-02-28T10:31:58;8.43;;;6.77;;
6661;SDS011;3367;48.714;8.994;2023-02-28T10:34:28;10.30;;;7.30;;
6661;SDS011;3367;48.714;8.994;2023-02-28T10:36:57;9.10;;;7.00;;
6661;SDS011;3367;48.714;8.994;2023-02-28T10:39:39;14.00;;;7.73;;
6661;SDS011;3367;48.714;8.994;2023-02-28T10:42:18;18.07;;;7.07;;
6661;SDS011;3367;48.714;8.994;2023-02-28T10:44:47;10.90;;;6.90;;
6661;SDS011;3367;48.714;8.994;2023-02-28T10:47:14;12.63;;;7.30;;
6661;SDS011;3367;48.714;8.994;2023-02-28T10:49:46;17.73;;;7.43;;
6661;SDS011;3367;48.714;8.994;2023-02-28T10:52:15;13.50;;;7.87;;
6661;SDS011;3367;48.714;8.994;2023-02-28T10:55:13;17.83;;;8.70;;
6661;SDS011;3367;48.714;8.994;2023-02-28T10:57:42;9.67;;;6.77;;
6661;SDS011;3367;48.714;8.994;2023-02-28T11:00:12;9.80;;;7.53;;
6661;SDS011;3367;48.714;8.994;2023-02-28T11:02:41;10.33;;;7.00;;
6661;SDS011;3367;48.714;8.994;2023-02-28T11:05:23;10.13;;;7.23;;
6661;SDS011;3367;48.714;8.994;2023-02-28T11:07:53;8.40;;;6.77;;
6661;SDS011;3367;48.714;8.994;2023-02-28T11:10:21;10.80;;;7.70;;
6661;SDS011;3367;48.714;8.994;2023-02-28T11:12:54;11.97;;;7.90;;
6661;SDS011;3367;48.714;8.994;2023-02-28T11:15:22;18.57;;;8.23;;
6661;SDS011;3367;48.714;8.994;2023-02-28T11:17:54;11.03;;;7.83;;
6661;SDS011;3367;48.714;8.994;2023-02-28T11:20:23;10.63;;;6.80;;
6661;SDS011;3367;48.714;8.994;2023-02-28T11:22:54;11.50;;;7.33;;
6661;SDS011;3367;48.714;8.994;2023-02-28T11:25:24;10.33;;;7.23;;
6661;SDS011;3367;48.714;8.994;2023-02-28T11:27:53;10.33;;;7.10;;
6661;SDS011;3367;48.714;8.994;2023-02-28T11:30:26;14.80;;;8.83;;
6661;SDS011;3367;48.714;8.994;2023-02-28T11:32:58;13.57;;;8.30;;
6661;SDS011;3367;48.714;8.994;2023-02-28T11:35:26;11.33;;;7.87;;
6661;SDS011;3367;48.714;8.994;2023-02-28T11:38:00;12.83;;;7.50;;
6661;SDS011;3367;48.714;8.994;2023-02-28T11:40:30;10.93;;;7.03;;
6661;SDS011;3367;48.714;8.994;2023-02-28T11:43:06;12.07;;;7.50;;
6661;SDS011;3367;48.714;8.994;2023-02-28T11:45:49;17.10;;;8.30;;
6661;SDS011;3367;48.714;8.994;2023-02-28T11:48:32;10.80;;;7.70;;
6661;SDS011;3367;48.714;8.994;2023-02-28T11:51:10;16.83;;;8.53;;
6661;SDS011;3367;48.714;8.994;2023-02-28T11:54:05;13.93;;;7.70;;
6661;SDS011;3367;48.714;8.994;2023-02-28T11:56:49;10.80;;;7.97;;
6661;SDS011;3367;48.714;8.994;2023-02-28T11:59:25;15.63;;;8.83;;
6661;SDS011;3367;48.714;8.994;2023-02-28T12:02:05;12.40;;;7.90;;
6661;SDS011;3367;48.714;8.994;2023-02-28T12:04:48;10.60;;;7.17;;
6661;SDS011;3367;48.714;8.994;2023-02-28T12:07:22;11.47;;;7.80;;
6661;SDS011;3367;48.714;8.994;2023-02-28T12:10:00;12.30;;;8.37;;
6661;SDS011;3367;48.714;8.994;2023-02-28T12:12:43;10.67;;;7.63;;
6661;SDS011;3367;48.714;8.994;2023-02-28T12:15:21;16.07;;;8.40;;
6661;SDS011;3367;48.714;8.994;2023-02-28T12:18:01;11.47;;;7.27;;
6661;SDS011;3367;48.714;8.994;2023-02-28T12:20:41;9.90;;;7.50;;
6661;SDS011;3367;48.714;8.994;2023-02-28T12:26:14;9.40;;;7.90;;
6661;SDS011;3367;48.714;8.994;2023-02-28T12:28:46;10.80;;;8.10;;
6661;SDS011;3367;48.714;8.994;2023-02-28T12:31:18;9.43;;;7.23;;
6661;SDS011;3367;48.714;8.994;2023-02-28T12:33:50;15.33;;;7.83;;
6661;SDS011;3367;48.714;8.994;2023-02-28T12:36:19;10.83;;;7.57;;
6661;SDS011;3367;48.714;8.994;2023-02-28T12:38:49;9.30;;;7.47;;
6661;SDS011;3367;48.714;8.994;2023-02-28T12:41:22;11.43;;;7.47;;
6661;SDS011;3367;48.714;8.994;2023-02-28T12:44:00;10.67;;;7.23;;
6661;SDS011;3367;48.714;8.994;2023-02-28T12:46:31;10.23;;;7.37;;
6661;SDS011;3367;48.714;8.994;2023-02-28T12:49:02;18.07;;;7.90;;
6661;SDS011;3367;48.714;8.994;2023-02-28T12:51:32;8.67;;;6.40;;
6661;SDS011;3367;48.714;8.994;2023-02-28T12:54:04;12.60;;;7.93;;
6661;SDS011;3367;48.714;8.994;2023-02-28T12:56:41;11.83;;;8.30;;
6661;SDS011;3367;48.714;8.994;2023-02-28T12:59:14;10.70;;;7.33;;
6661;SDS011;3367;48.714;8.994;2023-02-28T13:07:51;9.10;;;7.47;;
6661;SDS011;3367;48.714;8.994;2023-02-28T13:10:47;10.97;;;7.13;;
6661;SDS011;3367;48.714;8.994;2023-02-28T13:13:21;10.60;;;7.10;;
6661;SDS011;3367;48.714;8.994;2023-02-28T13:15:58;10.03;;;7.10;;
6661;SDS011;3367;48.714;8.994;2023-02-28T13:18:29;8.37;;;6.93;;
6661;SDS011;3367;48.714;8.994;2023-02-28T13:20:57;11.10;;;7.00;;
6661;SDS011;3367;48.714;8.994;2023-02-28T13:23:39;12.60;;;7.73;;
6661;SDS011;3367;48.714;8.994;2023-02-28T13:26:32;11.80;;;8.07;;
6661;SDS011;3367;48.714;8.994;2023-02-28T13:29:51;9.20;;;6.80;;
6661;SDS011;3367;48.714;8.994;2023-02-28T13:35:13;8.80;;;6.93;;
6661;SDS011;3367;48.714;8.994;2023-02-28T13:37:44;10.27;;;7.57;;
6661;SDS011;3367;48.714;8.994;2023-02-28T13:40:30;12.40;;;8.30;;
6661;SDS011;3367;48.714;8.994;2023-02-28T13:43:02;12.20;;;7.67;;
6661;SDS011;3367;48.714;8.994;2023-02-28T13:45:31;10.73;;;7.70;;
6661;SDS011;3367;48.714;8.994;2023-02-28T13:48:03;9.30;;;7.27;;
6661;SDS011;3367;48.714;8.994;2023-02-28T13:50:40;10.97;;;7.50;;
6661;SDS011;3367;48.714;8.994;2023-02-28T13:53:28;10.63;;;6.83;;
6661;SDS011;3367;48.714;8.994;2023-02-28T13:56:08;8.80;;;6.57;;
6661;SDS011;3367;48.714;8.994;2023-02-28T13:58:48;7.83;;;6.80;;
6661;SDS011;3367;48.714;8.994;2023-02-28T14:01:30;10.27;;;7.40;;
6661;SDS011;3367;48.714;8.994;2023-02-28T14:07:16;10.10;;;7.03;;
6661;SDS011;3367;48.714;8.994;2023-02-28T14:09:46;7.23;;;6.53;;
6661;SDS011;3367;48.714;8.994;2023-02-28T14:18:16;10.50;;;6.93;;
6661;SDS011;3367;48.714;8.994;2023-02-28T14:20:46;9.40;;;7.20;;
6661;SDS011;3367;48.714;8.994;2023-02-28T14:23:16;10.10;;;7.20;;
6661;SDS011;3367;48.714;8.994;2023-02-28T14:25:56;10.77;;;8.10;;
6661;SDS011;3367;48.714;8.994;2023-02-28T14:28:37;10.40;;;7.40;;
6661;SDS011;3367;48.714;8.994;2023-02-28T14:31:15;10.47;;;8.13;;
6661;SDS011;3367;48.714;8.994;2023-02-28T14:33:57;11.17;;;7.33;;
6661;SDS011;3367;48.714;8.994;2023-02-28T14:36:39;11.53;;;7.30;;
6661;SDS011;3367;48.714;8.994;2023-02-28T14:39:10;10.47;;;7.80;;
6661;SDS011;3367;48.714;8.994;2023-02-28T14:41:39;10.07;;;7.33;;
6661;SDS011;3367;48.714;8.994;2023-02-28T14:44:14;11.13;;;7.70;;
6661;SDS011;3367;48.714;8.994;2023-02-28T14:46:43;9.30;;;6.87;;
6661;SDS011;3367;48.714;8.994;2023-02-28T14:49:17;10.53;;;7.27;;
6661;SDS011;3367;48.714;8.994;2023-02-28T14:51:47;11.00;;;6.87;;
6661;SDS011;3367;48.714;8.994;2023-02-28T14:54:15;15.20;;;7.80;;
6661;SDS011;3367;48.714;8.994;2023-02-28T14:56:48;10.83;;;8.40;;
6661;SDS011;3367;48.714;8.994;2023-02-28T14:59:24;9.27;;;7.40;;
6661;SDS011;3367;48.714;8.994;2023-02-28T15:04:44;9.67;;;6.97;;
6661;SDS011;3367;48.714;8.994;2023-02-28T15:07:19;8.10;;;7.03;;
6661;SDS011;3367;48.714;8.994;2023-02-28T15:10:09;9.00;;;7.10;;
6661;SDS011;3367;48.714;8.994;2023-02-28T15:12:39;10.20;;;7.27;;
6661;SDS011;3367;48.714;8.994;2023-02-28T15:15:14;10.50;;;6.73;;
6661;SDS011;3367;48.714;8.994;2023-02-28T15:17:42;9.30;;;6.80;;
6661;SDS011;3367;48.714;8.994;2023-02-28T15:20:14;8.90;;;6.60;;
6661;SDS011;3367;48.714;8.994;2023-02-28T15:22:43;10.53;;;7.70;;
6661;SDS011;3367;48.714;8.994;2023-02-28T15:25:13;12.40;;;7.50;;
6661;SDS011;3367;48.714;8.994;2023-02-28T15:27:44;11.40;;;7.83;;
6661;SDS011;3367;48.714;8.994;2023-02-28T15:30:15;13.60;;;7.27;;
6661;SDS011;3367;48.714;8.994;2023-02-28T15:32:44;9.80;;;7.30;;
6661;SDS011;3367;48.714;8.994;2023-02-28T15:35:29;10.97;;;7.40;;
6661;SDS011;3367;48.714;8.994;2023-02-28T15:37:58;6.83;;;5.83;;
6661;SDS011;3367;48.714;8.994;2023-02-28T15:40:30;11.33;;;7.13;;
6661;SDS011;3367;48.714;8.994;2023-02-28T15:43:05;13.20;;;7.60;;
6661;SDS011;3367;48.714;8.994;2023-02-28T15:45:41;8.93;;;6.70;;
6661;SDS011;3367;48.714;8.994;2023-02-28T15:48:14;10.57;;;6.60;;
6661;SDS011;3367;48.714;8.994;2023-02-28T15:50:46;9.60;;;7.43;;
6661;SDS011;3367;48.714;8.994;2023-02-28T15:53:16;8.93;;;6.87;;
6661;SDS011;3367;48.714;8.994;2023-02-28T15:55:45;10.27;;;6.57;;
6661;SDS011;3367;48.714;8.994;2023-02-28T15:58:22;7.80;;;6.63;;
6661;SDS011;3367;48.714;8.994;2023-02-28T16:01:00;9.00;;;7.20;;
6661;SDS011;3367;48.714;8.994;2023-02-28T16:03:35;9.00;;;7.40;;
6661;SDS011;3367;48.714;8.994;2023-02-28T16:06:24;10.83;;;7.33;;
6661;SDS011;3367;48.714;8.994;2023-02-28T16:08:57;10.43;;;7.43;;
6661;SDS011;3367;48.714;8.994;2023-02-28T16:11:24;11.47;;;8.33;;
6661;SDS011;3367;48.714;8.994;2023-02-28T16:13:51;10.13;;;6.80;;